Time;durP1;ratioP1;P1;durP2;ratioP2;P2;SDS_P1;SDS_P2;PMS_P1;PMS_P2;Temp;Humidity;BMP_temperature;BMP_pressure;BME280_temperature;BME280_humidity;BME280_pressure;Samples;Min_cycle;Max_cycle;Signal;HPM_P1;HPM_P2
2021/08/17 00:02:25;;;;;;;7.95;4.97;;;;;;;;;;5102800;28;20048;-82
2021/08/17 00:04:51;;;;;;;7.38;4.82;;;;;;;;;;5098642;28;20071;-82
2021/08/17 00:07:19;;;;;;;8.93;5.07;;;;;;;;;;5102041;28;20040;-81
2021/08/17 00:09:47;;;;;;;8.40;5.40;;;;;;;;;;5103834;28;20055;-82
2021/08/17 00:12:14;;;;;;;7.80;5.25;;;;;;;;;;5105633;28;20048;-82
2021/08/17 00:14:41;;;;;;;9.23;6.20;;;;;;;;;;5105151;28;20066;-82
2021/08/17 00:17:09;;;;;;;10.82;5.43;;;;;;;;;;5106030;28;20052;-83
2021/08/17 00:19:38;;;;;;;8.52;5.78;;;;;;;;;;5106660;28;20085;-82
2021/08/17 00:22:05;;;;;;;8.13;4.88;;;;;;;;;;5107019;28;20072;-83
2021/08/17 00:24:33;;;;;;;7.97;4.95;;;;;;;;;;5106971;28;20128;-83
2021/08/17 00:27:01;;;;;;;8.55;5.63;;;;;;;;;;5105785;28;20040;-84
2021/08/17 00:29:28;;;;;;;8.63;5.03;;;;;;;;;;5106726;28;20044;-83
2021/08/17 00:31:55;;;;;;;10.13;5.45;;;;;;;;;;5107038;28;20394;-83
2021/08/17 00:34:21;;;;;;;9.23;5.53;;;;;;;;;;5105862;28;20044;-83
2021/08/17 00:36:48;;;;;;;7.93;4.63;;;;;;;;;;5106899;28;20070;-83
2021/08/17 00:39:16;;;;;;;8.70;5.35;;;;;;;;;;5106472;28;20545;-84
2021/08/17 00:41:45;;;;;;;8.45;5.57;;;;;;;;;;5106164;28;20107;-83
2021/08/17 00:44:19;;;;;;;7.72;5.15;;;;;;;;;;5105602;28;20083;-81
2021/08/17 00:46:46;;;;;;;9.15;5.28;;;;;;;;;;5105409;28;20505;-82
2021/08/17 00:49:13;;;;;;;9.27;5.65;;;;;;;;;;5105274;28;20063;-82
2021/08/17 00:51:40;;;;;;;8.50;5.30;;;;;;;;;;5105112;28;20044;-82
2021/08/17 00:54:07;;;;;;;8.40;6.00;;;;;;;;;;5103751;28;20070;-83
2021/08/17 00:56:34;;;;;;;9.55;6.25;;;;;;;;;;5104472;28;20056;-83
2021/08/17 00:59:00;;;;;;;8.57;4.68;;;;;;;;;;5105253;28;20040;-82
2021/08/17 01:01:28;;;;;;;8.23;5.10;;;;;;;;;;5101818;28;20084;-82
2021/08/17 01:03:55;;;;;;;8.90;5.32;;;;;;;;;;5084516;28;20066;-83
2021/08/17 01:06:22;;;;;;;9.20;5.30;;;;;;;;;;5084698;28;20107;-82
2021/08/17 01:08:50;;;;;;;8.43;5.30;;;;;;;;;;5085029;28;20052;-83
2021/08/17 01:11:17;;;;;;;8.30;5.65;;;;;;;;;;5085494;28;20048;-83
2021/08/17 01:13:44;;;;;;;9.00;5.75;;;;;;;;;;5085035;28;20048;-83
2021/08/17 01:16:11;;;;;;;8.55;5.30;;;;;;;;;;5084044;28;20102;-83
2021/08/17 01:18:39;;;;;;;6.72;4.90;;;;;;;;;;5085483;28;20071;-83
2021/08/17 01:21:08;;;;;;;7.85;5.32;;;;;;;;;;5084964;28;20041;-83
2021/08/17 01:23:35;;;;;;;7.75;5.47;;;;;;;;;;5085622;28;20055;-83
2021/08/17 01:26:03;;;;;;;6.60;3.95;;;;;;;;;;5084970;28;20041;-83
2021/08/17 01:28:30;;;;;;;6.28;3.88;;;;;;;;;;5085631;28;20052;-83
2021/08/17 01:31:01;;;;;;;6.47;3.55;;;;;;;;;;5085874;28;20049;-83
2021/08/17 01:33:29;;;;;;;6.50;3.33;;;;;;;;;;5087325;28;20048;-82
2021/08/17 01:35:56;;;;;;;5.30;3.08;;;;;;;;;;5090603;28;20049;-82
2021/08/17 01:38:23;;;;;;;5.82;3.30;;;;;;;;;;5088854;28;20044;-83
2021/08/17 01:40:50;;;;;;;5.68;3.33;;;;;;;;;;5085775;28;20048;-83
2021/08/17 01:43:18;;;;;;;6.47;3.40;;;;;;;;;;5084715;28;20098;-83
2021/08/17 01:45:52;;;;;;;6.38;3.50;;;;;;;;;;5085422;28;20079;-83
2021/08/17 01:48:19;;;;;;;6.18;3.42;;;;;;;;;;5085104;28;20041;-83
2021/08/17 01:50:45;;;;;;;5.15;2.90;;;;;;;;;;5084262;28;20094;-83
2021/08/17 01:53:12;;;;;;;6.13;3.08;;;;;;;;;;5083400;28;20471;-81
2021/08/17 01:55:39;;;;;;;4.43;2.53;;;;;;;;;;5083583;28;20036;-82
2021/08/17 01:58:06;;;;;;;4.63;2.42;;;;;;;;;;5083887;28;20433;-81
2021/08/17 02:00:34;;;;;;;4.22;2.10;;;;;;;;;;5083508;28;20044;-83
2021/08/17 02:03:00;;;;;;;3.60;1.98;;;;;;;;;;5066816;28;20053;-83
2021/08/17 02:05:27;;;;;;;3.47;1.55;;;;;;;;;;5062494;28;20049;-83
2021/08/17 02:07:56;;;;;;;3.38;1.55;;;;;;;;;;5062893;28;20056;-82
2021/08/17 02:10:23;;;;;;;3.33;1.45;;;;;;;;;;5062582;28;20486;-82
2021/08/17 02:12:49;;;;;;;2.63;1.30;;;;;;;;;;5079613;28;20070;-83
2021/08/17 02:15:16;;;;;;;3.63;1.60;;;;;;;;;;5105180;28;20156;-81
2021/08/17 02:17:44;;;;;;;4.03;1.50;;;;;;;;;;5107106;28;20048;-83
2021/08/17 02:20:12;;;;;;;2.88;1.27;;;;;;;;;;5106993;28;20097;-83
2021/08/17 02:22:39;;;;;;;3.25;1.42;;;;;;;;;;5107392;28;20055;-82
2021/08/17 02:25:07;;;;;;;4.22;1.60;;;;;;;;;;5106684;28;20044;-83
2021/08/17 02:27:35;;;;;;;2.88;1.42;;;;;;;;;;5107218;28;20188;-83
2021/08/17 02:30:02;;;;;;;4.68;2.60;;;;;;;;;;5106231;28;20109;-83
2021/08/17 02:32:29;;;;;;;3.15;1.52;;;;;;;;;;5105940;28;20044;-82
2021/08/17 02:34:57;;;;;;;3.60;1.73;;;;;;;;;;5105323;28;20132;-82
2021/08/17 02:37:24;;;;;;;2.78;1.70;;;;;;;;;;5106119;28;20543;-83
2021/08/17 02:39:51;;;;;;;2.85;1.50;;;;;;;;;;5106488;28;20048;-83
2021/08/17 02:42:19;;;;;;;4.07;1.50;;;;;;;;;;5106485;28;20060;-82
2021/08/17 02:44:46;;;;;;;3.42;1.67;;;;;;;;;;5105771;28;20097;-81
2021/08/17 02:47:12;;;;;;;3.55;2.22;;;;;;;;;;5105238;28;20040;-82
2021/08/17 02:49:39;;;;;;;3.42;1.45;;;;;;;;;;5106535;28;20409;-81
2021/08/17 02:52:07;;;;;;;3.40;1.55;;;;;;;;;;5106214;28;20044;-82
2021/08/17 02:54:35;;;;;;;3.13;1.30;;;;;;;;;;5106426;28;20044;-82
2021/08/17 02:57:03;;;;;;;2.58;1.25;;;;;;;;;;5105655;28;20043;-83
2021/08/17 02:59:30;;;;;;;3.15;1.45;;;;;;;;;;5108091;28;20040;-81
2021/08/17 03:01:57;;;;;;;3.25;1.35;;;;;;;;;;5112370;28;20054;-81
2021/08/17 03:04:24;;;;;;;3.05;1.33;;;;;;;;;;5108821;28;20043;-81
2021/08/17 03:06:51;;;;;;;2.97;1.10;;;;;;;;;;5097890;28;20044;-80
2021/08/17 03:09:19;;;;;;;2.33;0.90;;;;;;;;;;5098265;28;20459;-81
2021/08/17 03:11:46;;;;;;;2.13;1.00;;;;;;;;;;5098191;28;20044;-83
2021/08/17 03:14:12;;;;;;;1.95;0.80;;;;;;;;;;5098016;28;20052;-81
2021/08/17 03:16:39;;;;;;;3.30;1.40;;;;;;;;;;5098431;28;20069;-81
2021/08/17 03:19:06;;;;;;;2.05;0.90;;;;;;;;;;5098804;28;20048;-82
2021/08/17 03:21:33;;;;;;;1.98;0.80;;;;;;;;;;5098784;28;20077;-80
2021/08/17 03:24:00;;;;;;;2.92;1.27;;;;;;;;;;5098899;28;20091;-82
2021/08/17 03:26:28;;;;;;;3.15;1.15;;;;;;;;;;5099091;28;20093;-81
2021/08/17 03:28:55;;;;;;;2.67;1.30;;;;;;;;;;5099272;28;20044;-82
2021/08/17 03:31:21;;;;;;;2.67;1.00;;;;;;;;;;5099145;28;20048;-82
2021/08/17 03:33:48;;;;;;;2.53;1.20;;;;;;;;;;5099282;28;20093;-81
2021/08/17 03:36:15;;;;;;;3.92;1.40;;;;;;;;;;5098597;28;20048;-82
2021/08/17 03:38:42;;;;;;;3.20;1.20;;;;;;;;;;5100088;28;20101;-81
2021/08/17 03:41:11;;;;;;;3.45;1.52;;;;;;;;;;5100549;28;20081;-81
2021/08/17 03:43:40;;;;;;;2.90;1.40;;;;;;;;;;5102194;28;20048;-82
2021/08/17 03:46:06;;;;;;;3.92;1.90;;;;;;;;;;5101125;28;20447;-82
2021/08/17 03:48:33;;;;;;;3.80;1.30;;;;;;;;;;5102443;28;20048;-82
2021/08/17 03:51:00;;;;;;;3.90;1.50;;;;;;;;;;5101964;28;20052;-82
2021/08/17 03:53:27;;;;;;;4.70;1.60;;;;;;;;;;5102128;28;20094;-82
2021/08/17 03:55:54;;;;;;;3.88;1.80;;;;;;;;;;5102079;28;20099;-82
2021/08/17 03:58:21;;;;;;;4.80;1.73;;;;;;;;;;5103204;28;20081;-82
2021/08/17 04:00:50;;;;;;;3.10;1.60;;;;;;;;;;5103714;28;20048;-81
2021/08/17 04:03:16;;;;;;;3.55;1.92;;;;;;;;;;5104936;28;20052;-82
2021/08/17 04:05:43;;;;;;;2.97;1.52;;;;;;;;;;5107192;28;20044;-82
2021/08/17 04:08:10;;;;;;;3.58;1.88;;;;;;;;;;5109331;28;20044;-81
2021/08/17 04:10:38;;;;;;;3.67;1.73;;;;;;;;;;5109243;28;20101;-82
2021/08/17 04:13:05;;;;;;;4.18;1.88;;;;;;;;;;5104716;28;20110;-82
2021/08/17 04:15:32;;;;;;;4.95;2.17;;;;;;;;;;5089803;28;20079;-82
2021/08/17 04:18:00;;;;;;;6.07;3.25;;;;;;;;;;5082733;28;20049;-83
2021/08/17 04:20:28;;;;;;;3.97;1.92;;;;;;;;;;5082080;28;20489;-82
2021/08/17 04:22:55;;;;;;;3.22;1.70;;;;;;;;;;5084794;28;20059;-83
2021/08/17 04:25:22;;;;;;;3.53;1.90;;;;;;;;;;5082693;28;20045;-82
2021/08/17 04:27:49;;;;;;;5.88;2.72;;;;;;;;;;5082896;28;20127;-83
2021/08/17 04:30:16;;;;;;;4.03;1.98;;;;;;;;;;5093023;28;20072;-81
2021/08/17 04:32:43;;;;;;;4.75;1.92;;;;;;;;;;5086435;28;20040;-82
2021/08/17 04:35:11;;;;;;;4.40;2.20;;;;;;;;;;5087419;28;20041;-81
2021/08/17 04:37:39;;;;;;;5.75;2.22;;;;;;;;;;5087957;28;20082;-83
2021/08/17 04:40:07;;;;;;;4.78;1.85;;;;;;;;;;5085509;28;20086;-82
2021/08/17 04:42:33;;;;;;;4.85;2.08;;;;;;;;;;5085674;28;20052;-82
2021/08/17 04:45:00;;;;;;;5.97;2.63;;;;;;;;;;5084751;28;20094;-82
2021/08/17 04:47:27;;;;;;;4.97;2.65;;;;;;;;;;5085581;28;20591;-81
2021/08/17 04:49:54;;;;;;;4.75;2.17;;;;;;;;;;5083535;28;20071;-82
2021/08/17 04:52:22;;;;;;;4.25;1.77;;;;;;;;;;5083144;28;20049;-81
2021/08/17 04:54:48;;;;;;;5.03;2.17;;;;;;;;;;5082991;28;20060;-86
2021/08/17 04:57:15;;;;;;;5.55;2.33;;;;;;;;;;5085440;28;20053;-82
2021/08/17 04:59:42;;;;;;;5.65;2.28;;;;;;;;;;5081035;28;20053;-81
2021/08/17 05:02:09;;;;;;;3.90;2.00;;;;;;;;;;5081819;28;20044;-83
2021/08/17 05:04:35;;;;;;;4.70;2.35;;;;;;;;;;5079928;28;20147;-82
2021/08/17 05:07:02;;;;;;;5.72;3.05;;;;;;;;;;5079554;28;20049;-82
2021/08/17 05:09:30;;;;;;;4.43;1.83;;;;;;;;;;5079467;28;20052;-83
2021/08/17 05:11:57;;;;;;;4.72;1.80;;;;;;;;;;5081442;28;20070;-82
2021/08/17 05:14:24;;;;;;;4.40;1.92;;;;;;;;;;5100873;28;20096;-83
2021/08/17 05:16:52;;;;;;;4.03;1.90;;;;;;;;;;5100015;28;20081;-82
2021/08/17 05:19:19;;;;;;;4.82;2.20;;;;;;;;;;5101358;28;20409;-83
2021/08/17 05:21:45;;;;;;;4.25;1.70;;;;;;;;;;5100593;28;20044;-82
2021/08/17 05:24:12;;;;;;;5.78;2.15;;;;;;;;;;5100120;28;20098;-81
2021/08/17 05:26:40;;;;;;;4.72;2.08;;;;;;;;;;5102755;28;20048;-82
2021/08/17 05:29:07;;;;;;;5.18;1.73;;;;;;;;;;5110974;28;20044;-81
2021/08/17 05:31:34;;;;;;;3.45;1.80;;;;;;;;;;5105412;28;20044;-82
2021/08/17 05:34:01;;;;;;;3.65;1.98;;;;;;;;;;5104225;28;20041;-82
2021/08/17 05:36:28;;;;;;;4.78;2.13;;;;;;;;;;5102251;28;20074;-82
2021/08/17 05:38:54;;;;;;;4.47;2.15;;;;;;;;;;5101581;28;20040;-83
2021/08/17 05:41:21;;;;;;;4.68;2.03;;;;;;;;;;5101924;28;20044;-82
2021/08/17 05:43:49;;;;;;;4.43;2.20;;;;;;;;;;5102470;28;20069;-82
2021/08/17 05:46:16;;;;;;;4.15;1.90;;;;;;;;;;5102030;28;20141;-82
2021/08/17 05:48:43;;;;;;;4.47;2.00;;;;;;;;;;5102562;28;20051;-82
2021/08/17 05:51:11;;;;;;;4.10;1.70;;;;;;;;;;5103521;28;20065;-82
2021/08/17 05:53:37;;;;;;;3.83;1.83;;;;;;;;;;5103294;28;20048;-82
2021/08/17 05:56:05;;;;;;;6.45;2.58;;;;;;;;;;5102819;28;20074;-83
2021/08/17 05:58:31;;;;;;;4.30;2.47;;;;;;;;;;5112268;28;20028;-81
2021/08/17 06:01:00;;;;;;;4.43;2.40;;;;;;;;;;5116837;28;20044;-81
2021/08/17 06:03:27;;;;;;;4.40;2.60;;;;;;;;;;5095262;28;20036;-81
2021/08/17 06:05:57;;;;;;;4.45;2.30;;;;;;;;;;5078296;28;20065;-81
2021/08/17 06:08:24;;;;;;;4.83;2.60;;;;;;;;;;5076400;28;20051;-81
2021/08/17 06:10:51;;;;;;;5.13;2.83;;;;;;;;;;5078228;28;20050;-82
2021/08/17 06:13:18;;;;;;;5.45;2.70;;;;;;;;;;5089846;28;20048;-81
2021/08/17 06:15:45;;;;;;;6.30;2.78;;;;;;;;;;5096272;28;20040;-82
2021/08/17 06:18:13;;;;;;;5.68;3.08;;;;;;;;;;5096877;28;20082;-82
2021/08/17 06:20:40;;;;;;;5.15;2.60;;;;;;;;;;5097921;28;20139;-82
2021/08/17 06:23:06;;;;;;;6.00;2.78;;;;;;;;;;5098967;28;20101;-82
2021/08/17 06:25:34;;;;;;;5.45;2.60;;;;;;;;;;5102902;28;20044;-83
2021/08/17 06:28:01;;;;;;;5.90;3.55;;;;;;;;;;5103781;28;20044;-83
2021/08/17 06:30:28;;;;;;;6.65;2.90;;;;;;;;;;5104620;28;20048;-83
2021/08/17 06:32:55;;;;;;;6.05;2.90;;;;;;;;;;5104812;28;20040;-83
2021/08/17 06:35:24;;;;;;;6.53;2.97;;;;;;;;;;5101228;28;20448;-83
2021/08/17 06:37:51;;;;;;;5.72;2.95;;;;;;;;;;5100762;28;20044;-83
2021/08/17 06:40:18;;;;;;;6.60;3.22;;;;;;;;;;5105443;28;20044;-82
2021/08/17 06:42:45;;;;;;;5.78;2.88;;;;;;;;;;5112852;28;20307;-82
2021/08/17 06:45:13;;;;;;;6.15;3.17;;;;;;;;;;5101916;28;20048;-82
2021/08/17 06:47:47;;;;;;;5.43;3.28;;;;;;;;;;5098492;28;20497;-82
2021/08/17 06:50:14;;;;;;;5.30;3.05;;;;;;;;;;5097788;28;20040;-81
2021/08/17 06:52:44;;;;;;;4.72;2.65;;;;;;;;;;5097133;28;20048;-82
2021/08/17 06:55:11;;;;;;;6.00;3.22;;;;;;;;;;5098061;28;20124;-81
2021/08/17 06:57:39;;;;;;;6.57;3.25;;;;;;;;;;5096433;28;20044;-82
2021/08/17 07:00:08;;;;;;;6.93;2.67;;;;;;;;;;5097935;28;20070;-81
2021/08/17 07:02:39;;;;;;;5.53;2.97;;;;;;;;;;5085207;28;20049;-79
2021/08/17 07:05:07;;;;;;;6.40;3.40;;;;;;;;;;5080090;28;20059;-82
2021/08/17 07:07:33;;;;;;;5.50;2.65;;;;;;;;;;5078908;28;20044;-82
2021/08/17 07:10:15;;;;;;;5.50;3.10;;;;;;;;;;5079522;28;20106;-85
2021/08/17 07:12:42;;;;;;;5.60;2.92;;;;;;;;;;5079847;28;20048;-89
2021/08/17 07:15:24;;;;;;;5.43;2.45;;;;;;;;;;5079005;28;20126;-89
2021/08/17 07:17:56;;;;;;;5.90;2.35;;;;;;;;;;5081662;28;20045;-87
2021/08/17 07:20:23;;;;;;;5.43;2.88;;;;;;;;;;5083835;28;20044;-81
2021/08/17 07:22:50;;;;;;;6.32;2.38;;;;;;;;;;5081162;28;20563;-83
2021/08/17 07:25:18;;;;;;;5.07;2.20;;;;;;;;;;5079094;28;20048;-82
2021/08/17 07:27:45;;;;;;;8.40;3.20;;;;;;;;;;5079140;28;20041;-81
2021/08/17 07:30:13;;;;;;;5.63;2.70;;;;;;;;;;5079406;28;20079;-82
2021/08/17 07:32:40;;;;;;;6.25;2.45;;;;;;;;;;5080184;28;20110;-83
2021/08/17 07:35:08;;;;;;;6.88;3.13;;;;;;;;;;5077367;28;20052;-82
2021/08/17 07:37:35;;;;;;;5.35;2.33;;;;;;;;;;5078837;28;20052;-80
2021/08/17 07:40:02;;;;;;;5.47;2.90;;;;;;;;;;5082822;28;20513;-84
2021/08/17 07:42:32;;;;;;;4.40;2.38;;;;;;;;;;5083039;28;20118;-81
2021/08/17 07:45:02;;;;;;;4.85;2.60;;;;;;;;;;5079806;28;20048;-82
2021/08/17 07:47:29;;;;;;;5.15;2.30;;;;;;;;;;5063001;28;20534;-82
2021/08/17 07:49:55;;;;;;;5.38;2.67;;;;;;;;;;5063050;28;20040;-82
2021/08/17 07:52:25;;;;;;;5.65;2.75;;;;;;;;;;5062142;28;20044;-80
2021/08/17 07:54:52;;;;;;;6.25;2.60;;;;;;;;;;5061629;28;20079;-80
2021/08/17 07:57:19;;;;;;;4.95;2.47;;;;;;;;;;5064815;28;20112;-80
2021/08/17 07:59:47;;;;;;;4.38;2.22;;;;;;;;;;5063346;28;20053;-79
2021/08/17 08:02:17;;;;;;;6.00;2.60;;;;;;;;;;5071627;28;20121;-79
2021/08/17 08:04:44;;;;;;;5.78;2.40;;;;;;;;;;5080839;28;20048;-80
2021/08/17 08:07:11;;;;;;;4.40;2.20;;;;;;;;;;5077629;28;20037;-79
2021/08/17 08:09:38;;;;;;;5.07;2.70;;;;;;;;;;5075237;28;20095;-80
2021/08/17 08:12:06;;;;;;;6.75;3.50;;;;;;;;;;5073972;28;20052;-79
2021/08/17 08:14:34;;;;;;;5.90;3.58;;;;;;;;;;5074921;28;20048;-78
2021/08/17 08:17:03;;;;;;;4.45;2.63;;;;;;;;;;5074751;28;20045;-79
2021/08/17 08:19:30;;;;;;;4.95;2.72;;;;;;;;;;5074603;28;20572;-79
2021/08/17 08:21:57;;;;;;;6.45;2.95;;;;;;;;;;5074385;28;20093;-79
2021/08/17 08:24:26;;;;;;;5.78;3.17;;;;;;;;;;5073981;28;20094;-78
2021/08/17 08:26:55;;;;;;;4.93;2.47;;;;;;;;;;5073405;28;20091;-80
2021/08/17 08:29:22;;;;;;;5.07;2.65;;;;;;;;;;5073699;28;20523;-80
2021/08/17 08:31:49;;;;;;;4.55;2.40;;;;;;;;;;5073605;28;20064;-79
2021/08/17 08:34:17;;;;;;;4.65;2.40;;;;;;;;;;5073815;28;20070;-81
2021/08/17 08:36:45;;;;;;;5.10;2.35;;;;;;;;;;5074035;28;20048;-79
2021/08/17 08:39:14;;;;;;;5.43;3.38;;;;;;;;;;5074086;28;20098;-80
2021/08/17 08:41:41;;;;;;;5.78;2.30;;;;;;;;;;5073328;28;20049;-79
2021/08/17 08:44:10;;;;;;;5.68;2.85;;;;;;;;;;5073407;28;20103;-79
2021/08/17 08:46:37;;;;;;;4.35;2.00;;;;;;;;;;5073139;28;20052;-79
2021/08/17 08:49:05;;;;;;;4.93;2.72;;;;;;;;;;5073595;28;20486;-79
2021/08/17 08:51:35;;;;;;;5.03;2.40;;;;;;;;;;5073682;28;20441;-79
2021/08/17 08:54:06;;;;;;;6.47;2.58;;;;;;;;;;5075383;28;20044;-81
2021/08/17 08:56:36;;;;;;;3.92;2.10;;;;;;;;;;5074913;28;20044;-80
2021/08/17 08:59:03;;;;;;;5.07;2.65;;;;;;;;;;5073824;28;20489;-80
2021/08/17 09:01:30;;;;;;;6.18;2.40;;;;;;;;;;5073761;28;20060;-79
2021/08/17 09:03:57;;;;;;;6.00;2.72;;;;;;;;;;5073281;28;20053;-79
2021/08/17 09:06:26;;;;;;;4.90;2.45;;;;;;;;;;5068291;28;20596;-80
2021/08/17 09:09:14;;;;;;;4.70;2.58;;;;;;;;;;5055394;28;20041;-81
2021/08/17 09:11:42;;;;;;;5.97;2.70;;;;;;;;;;5054429;28;20094;-81
2021/08/17 09:14:21;;;;;;;6.20;2.83;;;;;;;;;;5054697;28;20045;-80
2021/08/17 09:16:53;;;;;;;5.10;2.75;;;;;;;;;;5054431;28;20494;-81
2021/08/17 09:19:34;;;;;;;5.30;2.75;;;;;;;;;;5055465;28;20121;-80
2021/08/17 09:22:14;;;;;;;6.10;2.53;;;;;;;;;;5060665;28;20048;-80
2021/08/17 09:24:48;;;;;;;4.13;2.40;;;;;;;;;;5066736;28;20041;-80
2021/08/17 09:27:17;;;;;;;4.93;2.42;;;;;;;;;;5060191;28;20045;-80
2021/08/17 09:29:46;;;;;;;5.50;3.40;;;;;;;;;;5057748;28;20049;-80
2021/08/17 09:32:16;;;;;;;4.72;2.25;;;;;;;;;;5054662;28;20098;-80
2021/08/17 09:34:49;;;;;;;5.43;2.40;;;;;;;;;;5054376;28;20415;-81
2021/08/17 09:37:17;;;;;;;6.28;2.30;;;;;;;;;;5054352;28;20045;-81
2021/08/17 09:39:47;;;;;;;6.10;2.55;;;;;;;;;;5054569;28;20567;-80
2021/08/17 09:42:22;;;;;;;5.88;2.67;;;;;;;;;;5054899;28;20052;-81
2021/08/17 09:45:14;;;;;;;6.47;2.70;;;;;;;;;;5053984;28;20100;-81
2021/08/17 09:47:42;;;;;;;5.45;2.55;;;;;;;;;;5055003;28;20053;-80
2021/08/17 09:50:31;;;;;;;5.68;2.70;;;;;;;;;;5054429;28;20053;-80
2021/08/17 09:53:10;;;;;;;6.05;2.40;;;;;;;;;;5071036;28;20053;-79
2021/08/17 09:55:44;;;;;;;4.85;2.50;;;;;;;;;;5074187;28;20421;-80
2021/08/17 09:58:22;;;;;;;6.78;2.60;;;;;;;;;;5073963;28;20110;-80
2021/08/17 10:00:54;;;;;;;5.45;2.63;;;;;;;;;;5073635;28;20051;-81
2021/08/17 10:05:58;;;;;;;5.85;2.72;;;;;;;;;;5111919;22;20048;-83
2021/08/17 10:08:33;;;;;;;5.32;2.38;;;;;;;;;;5106889;28;20055;-84
2021/08/17 10:11:05;;;;;;;4.70;2.53;;;;;;;;;;5107107;28;20044;-85
2021/08/17 10:13:38;;;;;;;5.63;2.42;;;;;;;;;;5108502;28;20048;-85
2021/08/17 10:16:28;;;;;;;;;;;;;;;;;;;;;
2021/08/17 10:19:03;;;;;;;5.03;2.28;;;;;;;;;;5101006;28;20378;-85
2021/08/17 10:21:54;;;;;;;5.60;2.80;;;;;;;;;;5087398;28;20134;-84
2021/08/17 10:24:25;;;;;;;6.32;2.63;;;;;;;;;;5103195;28;20036;-84
2021/08/17 10:27:33;;;;;;;5.78;2.28;;;;;;;;;;5105503;28;20056;-84
2021/08/17 10:30:20;;;;;;;5.70;2.45;;;;;;;;;;5096298;28;20051;-85
2021/08/17 10:32:50;;;;;;;4.95;2.20;;;;;;;;;;5103513;28;20040;-83
2021/08/17 10:35:59;;;;;;;5.72;2.45;;;;;;;;;;5099450;28;21024;-83
2021/08/17 10:38:43;;;;;;;4.93;2.45;;;;;;;;;;5101952;28;20052;-83
2021/08/17 10:41:10;;;;;;;4.22;1.90;;;;;;;;;;5105591;28;20052;-83
2021/08/17 10:44:13;;;;;;;7.13;2.40;;;;;;;;;;5109649;28;20052;-83
2021/08/17 10:46:57;;;;;;;6.75;2.50;;;;;;;;;;5048298;28;20058;-84
2021/08/17 10:49:29;;;;;;;5.97;2.40;;;;;;;;;;5097696;28;20044;-83
2021/08/17 10:51:58;;;;;;;4.53;2.35;;;;;;;;;;5102305;28;20044;-83
2021/08/17 10:54:25;;;;;;;4.85;2.38;;;;;;;;;;5100638;28;20458;-82
2021/08/17 10:56:51;;;;;;;5.07;2.28;;;;;;;;;;5100411;28;20101;-83
2021/08/17 10:59:39;;;;;;;4.90;2.20;;;;;;;;;;5100704;28;20048;-83
2021/08/17 11:02:11;;;;;;;5.20;2.63;;;;;;;;;;5100989;28;20075;-83
2021/08/17 11:04:43;;;;;;;4.97;2.20;;;;;;;;;;5101167;28;20331;-83
2021/08/17 11:07:31;;;;;;;4.82;2.50;;;;;;;;;;5098655;28;20044;-84
2021/08/17 11:09:58;;;;;;;5.82;2.25;;;;;;;;;;5099408;28;20048;-83
2021/08/17 11:12:34;;;;;;;4.65;2.17;;;;;;;;;;5099599;28;20073;-83
2021/08/17 11:15:04;;;;;;;6.78;2.20;;;;;;;;;;5100544;28;20109;-83
2021/08/17 11:17:33;;;;;;;5.03;2.45;;;;;;;;;;5099611;28;20052;-83
2021/08/17 11:20:00;;;;;;;5.75;2.55;;;;;;;;;;5099894;28;20050;-83
2021/08/17 11:22:29;;;;;;;4.60;2.60;;;;;;;;;;5099263;28;20097;-84
2021/08/17 11:24:57;;;;;;;4.95;2.30;;;;;;;;;;5100157;28;20048;-84
2021/08/17 11:27:26;;;;;;;5.05;2.33;;;;;;;;;;5101556;28;20051;-83
2021/08/17 11:29:54;;;;;;;4.40;2.50;;;;;;;;;;5101341;28;20051;-84
2021/08/17 11:32:35;;;;;;;4.63;2.40;;;;;;;;;;5100383;28;20071;-84
2021/08/17 11:35:05;;;;;;;5.65;2.13;;;;;;;;;;5101738;28;20081;-83
2021/08/17 11:37:32;;;;;;;;;;;;;;;;;;5098909;28;20052;-84
2021/08/17 11:40:05;;;;;;;6.05;2.42;;;;;;;;;;5097852;28;19920;-84
2021/08/17 11:42:34;;;;;;;4.72;2.65;;;;;;;;;;5099416;28;20048;-84
2021/08/17 11:45:04;;;;;;;4.22;2.35;;;;;;;;;;5101952;28;20101;-84
2021/08/17 11:47:34;;;;;;;5.53;3.05;;;;;;;;;;5106154;28;20032;-83
2021/08/17 11:50:02;;;;;;;4.80;3.08;;;;;;;;;;5090016;28;20071;-83
2021/08/17 11:52:35;;;;;;;7.03;3.97;;;;;;;;;;5093830;28;20052;-83
2021/08/17 11:55:06;;;;;;;6.63;3.40;;;;;;;;;;5086372;28;20048;-83
2021/08/17 11:57:35;;;;;;;5.05;2.40;;;;;;;;;;5076178;28;20110;-83
2021/08/17 12:00:08;;;;;;;5.95;2.90;;;;;;;;;;5074831;28;20048;-83
2021/08/17 12:02:37;;;;;;;6.43;2.60;;;;;;;;;;5078546;28;20049;-83
2021/08/17 12:05:06;;;;;;;4.97;2.58;;;;;;;;;;5080063;28;20048;-83
2021/08/17 12:07:34;;;;;;;4.90;3.22;;;;;;;;;;5076865;28;20075;-83
2021/08/17 12:10:09;;;;;;;6.18;2.85;;;;;;;;;;5076582;28;20070;-83
2021/08/17 12:12:58;;;;;;;6.07;3.63;;;;;;;;;;5082696;28;20036;-83
2021/08/17 12:15:34;;;;;;;5.05;2.70;;;;;;;;;;5096775;28;20052;-83
2021/08/17 12:18:05;;;;;;;5.95;2.97;;;;;;;;;;5097053;28;20089;-83
2021/08/17 12:20:36;;;;;;;4.97;2.80;;;;;;;;;;5096655;28;20462;-83
2021/08/17 12:23:18;;;;;;;6.53;3.90;;;;;;;;;;5097172;28;20044;-83
2021/08/17 12:25:45;;;;;;;5.03;2.70;;;;;;;;;;5096736;28;20125;-83
2021/08/17 12:28:27;;;;;;;5.55;2.72;;;;;;;;;;5095847;28;20048;-83
2021/08/17 12:31:14;;;;;;;7.68;3.22;;;;;;;;;;5096143;28;20451;-83
2021/08/17 12:33:47;;;;;;;5.85;3.00;;;;;;;;;;5097879;28;20040;-83
2021/08/17 12:36:14;;;;;;;5.93;3.00;;;;;;;;;;5096473;28;20086;-83
2021/08/17 12:38:43;;;;;;;5.75;2.80;;;;;;;;;;5095056;28;20056;-83
2021/08/17 12:41:10;;;;;;;5.05;2.70;;;;;;;;;;5095690;28;20052;-83
2021/08/17 12:43:42;;;;;;;4.80;3.00;;;;;;;;;;5095871;28;20058;-82
2021/08/17 12:46:15;;;;;;;4.85;2.88;;;;;;;;;;5095147;28;20131;-83
2021/08/17 12:48:47;;;;;;;6.32;2.33;;;;;;;;;;5094966;28;20048;-83
2021/08/17 12:51:22;;;;;;;4.70;2.45;;;;;;;;;;5094181;28;20044;-83
2021/08/17 12:53:49;;;;;;;4.55;2.65;;;;;;;;;;5094312;28;20040;-83
2021/08/17 12:56:16;;;;;;;6.13;3.00;;;;;;;;;;5094754;28;20070;-84
2021/08/17 12:58:46;;;;;;;5.25;2.40;;;;;;;;;;5093748;28;20040;-83
2021/08/17 13:01:13;;;;;;;6.07;2.55;;;;;;;;;;5095097;28;20064;-84
2021/08/17 13:03:42;;;;;;;4.63;2.60;;;;;;;;;;5096547;28;20069;-83
2021/08/17 13:06:11;;;;;;;4.63;2.38;;;;;;;;;;5096325;28;20055;-83
2021/08/17 13:08:40;;;;;;;5.35;2.58;;;;;;;;;;5095510;28;20051;-83
2021/08/17 13:11:07;;;;;;;4.45;2.25;;;;;;;;;;5095457;28;20048;-83
2021/08/17 13:13:34;;;;;;;3.92;2.55;;;;;;;;;;5096166;28;20052;-83
2021/08/17 13:16:00;;;;;;;5.38;3.13;;;;;;;;;;5096895;28;20044;-82
2021/08/17 13:18:27;;;;;;;5.60;3.08;;;;;;;;;;5097826;28;20078;-83
2021/08/17 13:20:56;;;;;;;6.43;2.65;;;;;;;;;;5097624;28;20070;-83
2021/08/17 13:23:24;;;;;;;4.72;2.50;;;;;;;;;;5096720;28;20055;-83
2021/08/17 13:25:51;;;;;;;5.03;3.00;;;;;;;;;;5095371;28;20056;-83
2021/08/17 13:28:21;;;;;;;4.80;2.88;;;;;;;;;;5096711;28;20097;-82
2021/08/17 13:30:47;;;;;;;6.00;2.95;;;;;;;;;;5097075;28;20049;-83
2021/08/17 13:33:14;;;;;;;6.47;3.10;;;;;;;;;;5096452;28;20044;-83
2021/08/17 13:35:41;;;;;;;7.30;3.13;;;;;;;;;;5096023;28;20052;-82
2021/08/17 13:38:09;;;;;;;5.22;2.80;;;;;;;;;;5102999;28;20476;-83
2021/08/17 13:40:37;;;;;;;5.10;3.17;;;;;;;;;;5099641;28;20070;-83
2021/08/17 13:43:04;;;;;;;4.65;2.63;;;;;;;;;;5097272;28;20463;-83
2021/08/17 13:45:30;;;;;;;5.43;2.75;;;;;;;;;;5098535;28;20051;-83
2021/08/17 13:48:07;;;;;;;4.60;2.75;;;;;;;;;;5103406;28;20043;-91
2021/08/17 13:50:36;;;;;;;4.82;2.45;;;;;;;;;;5105317;28;20689;-85
2021/08/17 13:53:03;;;;;;;4.75;2.92;;;;;;;;;;5099268;28;20044;-82
2021/08/17 13:55:29;;;;;;;4.72;2.55;;;;;;;;;;5093138;28;20094;-82
2021/08/17 13:57:57;;;;;;;5.22;2.50;;;;;;;;;;5093796;28;20040;-82
2021/08/17 14:00:24;;;;;;;5.43;2.83;;;;;;;;;;5094009;28;20052;-83
2021/08/17 14:03:04;;;;;;;6.07;3.35;;;;;;;;;;5092311;28;20147;-86
2021/08/17 14:05:31;;;;;;;4.18;2.45;;;;;;;;;;5093303;28;20052;-82
2021/08/17 14:07:58;;;;;;;4.82;2.40;;;;;;;;;;5093532;28;20040;-85
2021/08/17 14:10:26;;;;;;;4.43;2.30;;;;;;;;;;5092319;28;20052;-89
2021/08/17 14:13:30;;;;;;;5.78;2.50;;;;;;;;;;5092533;28;20044;-84
2021/08/17 14:16:06;;;;;;;3.85;2.00;;;;;;;;;;5096125;28;20473;-84
2021/08/17 14:18:38;;;;;;;4.80;2.40;;;;;;;;;;5117089;28;20035;-85
2021/08/17 14:21:31;;;;;;;5.13;2.22;;;;;;;;;;5104247;28;20048;-82
2021/08/17 14:27:15;;;;;;;3.83;1.95;;;;;;;;;;5077268;28;20063;-83
2021/08/17 14:29:43;;;;;;;4.50;2.30;;;;;;;;;;5091788;28;20101;-83
2021/08/17 14:32:10;;;;;;;4.55;2.40;;;;;;;;;;5091480;28;20097;-82
2021/08/17 14:34:37;;;;;;;4.22;2.25;;;;;;;;;;5091648;28;20044;-83
2021/08/17 14:37:05;;;;;;;3.53;2.30;;;;;;;;;;5093461;28;20550;-83
2021/08/17 14:39:32;;;;;;;4.82;2.45;;;;;;;;;;5092754;28;20075;-82
2021/08/17 14:41:59;;;;;;;5.72;2.25;;;;;;;;;;5093486;28;20130;-82
2021/08/17 14:44:33;;;;;;;4.38;2.47;;;;;;;;;;5130882;22;20106;-82
2021/08/17 14:47:20;;;;;;;4.18;2.20;;;;;;;;;;5134814;28;20155;-82
2021/08/17 14:49:54;;;;;;;3.47;1.92;;;;;;;;;;5136314;28;20043;-82
2021/08/17 14:52:31;;;;;;;4.05;1.95;;;;;;;;;;5134119;28;20043;-82
2021/08/17 14:55:19;;;;;;;4.60;2.40;;;;;;;;;;5120760;27;20067;-81
2021/08/17 14:58:07;;;;;;;5.75;2.13;;;;;;;;;;5115241;27;20047;-82
2021/08/17 15:00:41;;;;;;;3.90;2.10;;;;;;;;;;5115595;27;20044;-82
2021/08/17 15:03:20;;;;;;;5.18;2.47;;;;;;;;;;5109928;28;20103;-82
2021/08/17 15:08:31;;;;;;;4.82;2.30;;;;;;;;;;5111566;28;20050;-82